createdAt,value
2018-04-01T00:00:43.953Z,78.50
2018-04-01T00:04:46.013Z,78.50
2018-04-01T00:08:48.052Z,78.40
2018-04-01T00:12:50.101Z,79.00
2018-04-01T00:16:52.134Z,78.00
2018-04-01T00:20:54.185Z,79.40
2018-04-01T00:24:57.002Z,80.00
2018-04-01T00:28:59.045Z,80.10
2018-04-01T00:33:01.094Z,78.90
2018-04-01T00:37:03.155Z,79.00
2018-04-01T00:41:05.182Z,78.30
2018-04-01T00:45:08.080Z,79.00
2018-04-01T00:49:10.126Z,79.10
2018-04-01T00:53:12.256Z,78.50
2018-04-01T00:57:14.355Z,78.80
2018-04-01T01:01:16.389Z,78.40
2018-04-01T01:05:18.433Z,78.30
2018-04-01T01:09:21.253Z,78.20
2018-04-01T01:13:23.300Z,78.30
2018-04-01T01:17:26.124Z,78.50
2018-04-01T01:21:28.153Z,78.40
2018-04-01T01:25:30.209Z,79.30
2018-04-01T01:29:32.326Z,80.00
2018-04-01T01:33:34.320Z,78.70
2018-04-01T01:37:36.378Z,78.50
2018-04-01T01:41:38.870Z,78.40
2018-04-01T01:45:40.932Z,78.50
2018-04-01T01:49:42.982Z,78.90
2018-04-01T01:53:45.029Z,78.50
2018-04-01T01:57:47.075Z,79.20
2018-04-01T02:01:49.101Z,78.50
2018-04-01T02:05:51.158Z,78.30
2018-04-01T02:09:53.242Z,79.50
2018-04-01T02:13:55.260Z,78.70
2018-04-01T02:17:57.312Z,78.60
2018-04-01T02:21:59.345Z,78.20
2018-04-01T02:26:01.389Z,79.90
2018-04-01T02:30:03.449Z,78.80
2018-04-01T02:34:05.500Z,78.80
2018-04-01T02:38:08.323Z,78.80
2018-04-01T02:42:10.354Z,78.80
2018-04-01T02:46:12.394Z,78.70
2018-04-01T02:50:14.443Z,79.30
2018-04-01T02:54:16.563Z,78.80
2018-04-01T02:58:18.629Z,78.30
2018-04-01T03:02:20.709Z,79.50
2018-04-01T03:06:22.783Z,78.30
2018-04-01T03:10:24.854Z,78.80
2018-04-01T03:14:26.918Z,78.80
2018-04-01T03:18:28.959Z,78.70
2018-04-01T03:22:30.981Z,79.00
2018-04-01T03:26:33.039Z,79.40
2018-04-01T03:30:35.088Z,79.70
2018-04-01T03:34:37.897Z,79.80
2018-04-01T03:38:39.932Z,79.80
2018-04-01T03:42:41.961Z,78.70
2018-04-01T03:46:44.096Z,79.00
2018-04-01T03:50:46.157Z,78.60
2018-04-01T03:54:48.210Z,79.20
2018-04-01T03:58:51.085Z,79.20
2018-04-01T04:02:53.129Z,78.40
2018-04-01T04:06:55.164Z,78.70
2018-04-01T04:10:57.228Z,79.20
2018-04-01T04:14:59.306Z,79.90
2018-04-01T04:19:01.354Z,79.30
2018-04-01T04:23:03.474Z,79.50
2018-04-01T04:27:05.504Z,79.50
2018-04-01T04:31:07.544Z,79.10
2018-04-01T04:35:09.607Z,77.90
2018-04-01T04:39:11.661Z,79.40
2018-04-01T04:43:13.721Z,79.10
2018-04-01T04:47:16.534Z,79.80
2018-04-01T04:51:18.572Z,79.70
2018-04-01T04:55:20.621Z,78.80
2018-04-01T04:59:22.679Z,78.80
2018-04-01T05:03:24.727Z,79.20
2018-04-01T05:07:26.750Z,79.00
2018-04-01T05:11:28.807Z,79.20
2018-04-01T05:15:30.852Z,78.30
2018-04-01T05:19:32.905Z,78.50
2018-04-01T05:23:34.958Z,78.80
2018-04-01T05:27:37.771Z,79.20
2018-04-01T05:31:39.825Z,79.10
2018-04-01T05:35:42.650Z,79.70
2018-04-01T05:39:44.691Z,79.70
2018-04-01T05:43:47.500Z,79.70
2018-04-01T05:47:49.528Z,79.60
2018-04-01T05:51:51.574Z,79.00
2018-04-01T05:55:53.636Z,78.90
2018-04-01T05:59:55.698Z,79.40
2018-04-01T06:03:57.762Z,78.70
2018-04-01T06:07:59.789Z,79.20
2018-04-01T06:12:01.842Z,78.20
2018-04-01T06:16:03.893Z,79.20
2018-04-01T06:20:05.960Z,78.90
2018-04-01T06:24:08.013Z,78.10
2018-04-01T06:28:10.838Z,79.00
2018-04-01T06:32:12.876Z,78.90
2018-04-01T06:36:15.693Z,78.60
2018-04-01T06:40:17.741Z,78.60
2018-04-01T06:44:19.872Z,78.70
2018-04-01T06:48:21.892Z,78.70
2018-04-01T06:52:24.709Z,78.40
2018-04-01T06:56:26.766Z,78.40
2018-04-01T07:00:29.577Z,78.10
2018-04-01T07:04:31.641Z,78.10
2018-04-01T07:08:33.668Z,78.30
2018-04-01T07:12:35.710Z,78.50
2018-04-01T07:16:37.744Z,79.50
2018-04-01T07:20:40.586Z,79.10
2018-04-01T07:24:42.637Z,79.00
2018-04-01T07:28:44.677Z,79.80
2018-04-01T07:32:47.488Z,78.70
2018-04-01T07:36:49.546Z,78.70
2018-04-01T07:40:52.375Z,79.50
2018-04-01T07:44:54.422Z,78.70
2018-04-01T07:48:56.456Z,78.70
2018-04-01T07:52:58.506Z,78.60
2018-04-01T07:57:00.553Z,79.40
2018-04-01T08:01:02.591Z,78.80
2018-04-01T08:05:05.408Z,78.90
2018-04-01T08:09:07.461Z,79.00
2018-04-01T08:13:10.264Z,79.50
2018-04-01T08:17:12.309Z,79.50
2018-04-01T08:21:14.511Z,78.30
2018-04-01T08:25:16.584Z,78.70
2018-04-01T08:29:19.388Z,78.70
2018-04-01T08:33:21.408Z,78.70
2018-04-01T08:37:23.451Z,78.70
2018-04-01T08:41:25.497Z,78.60
2018-04-01T08:45:28.708Z,78.60
2018-04-01T08:49:31.610Z,78.90
2018-04-01T08:53:33.637Z,78.90
2018-04-01T08:57:35.676Z,79.10
2018-04-01T09:01:37.722Z,79.00
2018-04-01T09:05:39.759Z,79.60
2018-04-01T09:09:41.817Z,78.40
2018-04-01T09:13:43.845Z,79.30
2018-04-01T09:17:45.888Z,79.30
2018-04-01T09:21:48.389Z,78.80
2018-04-01T09:25:50.428Z,79.10
2018-04-01T09:29:52.515Z,78.50
2018-04-01T09:33:55.224Z,78.90
2018-04-01T09:37:58.024Z,79.00
2018-04-01T09:42:00.066Z,79.00
2018-04-01T09:46:02.108Z,79.20
2018-04-01T09:50:04.200Z,78.60
2018-04-01T09:54:06.236Z,78.70
2018-04-01T09:58:08.278Z,78.80
2018-04-01T10:02:11.579Z,78.90
2018-04-01T10:06:14.917Z,78.60
2018-04-01T10:10:17.457Z,78.80
2018-04-01T10:14:19.972Z,78.30
2018-04-01T10:18:22.505Z,78.30
2018-04-01T10:22:25.041Z,78.10
2018-04-01T10:26:27.580Z,78.40
2018-04-01T10:30:30.113Z,78.80
2018-04-01T10:34:32.643Z,78.70
2018-04-01T10:38:36.028Z,78.60
2018-04-01T10:42:38.701Z,78.50
2018-04-01T10:46:41.976Z,78.70
2018-04-01T10:50:44.496Z,78.70
2018-04-01T10:54:46.562Z,78.50
2018-04-01T10:58:48.596Z,78.60
2018-04-01T11:02:50.630Z,78.60
2018-04-01T11:06:52.774Z,78.40
2018-04-01T11:10:54.805Z,78.60
2018-04-01T11:14:56.854Z,78.60
2018-04-01T11:18:58.901Z,78.90
2018-04-01T11:23:00.954Z,78.70
2018-04-01T11:27:03.752Z,78.70
2018-04-01T11:31:05.805Z,78.60
2018-04-01T11:35:08.630Z,78.50
2018-04-01T11:39:10.722Z,78.40
2018-04-01T11:43:12.769Z,78.60
2018-04-01T11:47:14.788Z,78.30
2018-04-01T11:51:16.909Z,78.00
2018-04-01T11:55:19.018Z,77.60
2018-04-01T11:59:21.072Z,77.50
2018-04-01T12:03:23.098Z,77.70
2018-04-01T12:07:25.143Z,77.70
2018-04-01T12:11:27.195Z,77.80
2018-04-01T12:15:29.285Z,78.00
2018-04-01T12:19:31.341Z,77.80
2018-04-01T12:23:33.377Z,77.80
2018-04-01T12:27:36.193Z,78.20
2018-04-01T12:31:38.241Z,78.10
2018-04-01T12:35:41.070Z,78.50
2018-04-01T12:39:43.108Z,78.20
2018-04-01T12:43:45.944Z,78.40
2018-04-01T12:47:47.984Z,78.40
2018-04-01T12:51:50.033Z,78.40
2018-04-01T12:55:52.076Z,78.30
2018-04-01T12:59:54.121Z,78.10
2018-04-01T13:03:56.144Z,77.90
2018-04-01T13:07:58.194Z,77.90
2018-04-01T13:12:00.253Z,78.20
2018-04-01T13:16:03.133Z,78.10
2018-04-01T13:20:05.154Z,78.00
2018-04-01T13:24:07.235Z,78.40
2018-04-01T13:28:09.286Z,78.30
2018-04-01T13:32:11.328Z,78.40
2018-04-01T13:36:13.364Z,78.50
2018-04-01T13:40:15.385Z,78.30
2018-04-01T13:44:17.432Z,78.20
2018-04-01T13:48:20.246Z,78.60
2018-04-01T13:52:22.293Z,78.60
2018-04-01T13:56:25.097Z,78.30
2018-04-01T14:00:27.118Z,78.30
2018-04-01T14:04:29.178Z,78.40
2018-04-01T14:08:31.227Z,78.40
2018-04-01T14:12:34.409Z,77.70
2018-04-01T14:16:37.234Z,78.40
2018-04-01T14:20:39.295Z,78.30
2018-04-01T14:24:41.318Z,78.30
2018-04-01T14:28:43.376Z,78.30
2018-04-01T14:32:45.417Z,78.20
2018-04-01T14:36:47.462Z,78.10
2018-04-01T14:40:50.285Z,78.00
2018-04-01T14:44:52.322Z,78.10
2018-04-01T14:48:55.133Z,78.30
2018-04-01T14:52:57.179Z,78.30
2018-04-01T14:56:59.993Z,78.00
2018-04-01T15:01:02.033Z,78.00
2018-04-01T15:05:04.064Z,77.70
2018-04-01T15:09:06.113Z,77.20
2018-04-01T15:13:08.159Z,77.90
2018-04-01T15:17:10.209Z,78.10
2018-04-01T15:21:12.252Z,78.10
2018-04-01T15:25:14.287Z,76.90
2018-04-01T15:29:16.372Z,77.90
2018-04-01T15:33:18.437Z,77.20
2018-04-01T15:37:21.245Z,77.20
2018-04-01T15:41:23.297Z,77.20
2018-04-01T15:45:26.092Z,76.60
2018-04-01T15:49:28.149Z,76.30
2018-04-01T15:53:30.207Z,77.90
2018-04-01T15:57:32.274Z,78.60
2018-04-01T16:01:34.330Z,78.20
2018-04-01T17:06:35.689Z,75.80
2018-04-01T17:10:37.731Z,77.20
2018-04-01T17:14:39.789Z,76.10
2018-04-01T17:18:41.848Z,75.50
2018-04-01T17:22:44.670Z,76.00
2018-04-01T17:26:46.722Z,76.00
2018-04-01T17:30:49.525Z,76.50
2018-04-01T17:34:51.579Z,76.40
2018-04-01T17:38:54.399Z,76.70
2018-04-01T17:42:56.449Z,76.60
2018-04-01T17:46:59.270Z,77.00
2018-04-01T17:51:01.304Z,76.90
2018-04-01T17:55:04.123Z,77.00
2018-04-01T17:59:06.169Z,77.00
2018-04-01T18:03:08.987Z,77.20
2018-04-01T18:07:11.042Z,77.10
2018-04-01T18:11:13.829Z,77.40
2018-04-01T18:15:16.636Z,77.60
2018-04-01T18:19:18.681Z,77.60
2018-04-01T18:23:20.728Z,77.70
2018-04-01T18:27:22.772Z,78.30
2018-04-01T18:31:24.793Z,77.70
2018-04-01T18:35:26.851Z,77.70
2018-04-01T18:39:28.897Z,78.00
2018-04-01T18:43:30.944Z,78.00
2018-04-01T18:47:33.763Z,77.90
2018-04-01T18:51:35.785Z,77.80
2018-04-01T18:55:37.862Z,77.80
2018-04-01T18:59:39.901Z,78.00
2018-04-01T19:03:41.966Z,78.10
2018-04-01T19:07:44.004Z,78.10
2018-04-01T19:11:46.067Z,77.90
2018-04-01T19:15:48.884Z,77.90
2018-04-01T19:19:51.421Z,77.90
2018-04-01T19:23:53.966Z,78.00
2018-04-01T19:27:56.520Z,77.70
2018-04-01T19:31:59.810Z,77.80
2018-04-01T19:36:03.113Z,77.60
2018-04-01T19:40:06.441Z,77.60
2018-04-01T19:44:08.980Z,77.60
2018-04-01T19:48:11.517Z,77.40
2018-04-01T19:52:14.049Z,77.30
2018-04-01T19:56:16.568Z,77.20
2018-04-01T20:00:19.132Z,77.30
2018-04-01T20:04:22.454Z,77.20
2018-04-01T20:08:25.768Z,77.20
2018-04-01T20:12:28.792Z,77.20
2018-04-01T20:16:31.322Z,77.30
2018-04-01T20:20:34.644Z,77.50
2018-04-01T20:24:37.189Z,77.50
2018-04-01T20:28:39.722Z,77.60
2018-04-01T20:32:42.253Z,77.50
2018-04-01T20:36:45.579Z,77.70
2018-04-01T20:40:48.112Z,77.70
2018-04-01T20:44:50.687Z,77.90
2018-04-01T20:48:53.224Z,77.90
2018-04-01T20:52:55.752Z,78.00
2018-04-01T20:56:58.421Z,77.90
2018-04-01T21:01:00.977Z,78.00
2018-04-01T21:05:03.513Z,77.90
2018-04-01T21:09:06.050Z,77.90
2018-04-01T21:13:08.579Z,77.90
2018-04-01T21:17:11.197Z,78.20
2018-04-01T21:21:13.746Z,77.90
2018-04-01T21:25:16.337Z,78.00
2018-04-01T21:29:18.866Z,78.30
2018-04-01T21:33:21.402Z,78.30
2018-04-01T21:37:23.918Z,77.90
2018-04-01T21:41:26.452Z,77.90
2018-04-01T21:45:29.749Z,78.20
2018-04-01T21:49:32.281Z,78.20
2018-04-01T21:53:34.821Z,77.90
2018-04-01T21:57:38.115Z,78.00
2018-04-01T22:01:40.690Z,78.00
2018-04-01T22:05:43.234Z,78.50
2018-04-01T22:09:45.767Z,78.10
2018-04-01T22:13:48.301Z,77.90
2018-04-01T22:17:50.838Z,77.90
2018-04-01T22:21:53.374Z,77.90
2018-04-01T22:25:55.904Z,78.00
2018-04-01T22:29:58.441Z,77.90
2018-04-01T22:34:00.976Z,78.00
2018-04-01T22:38:03.489Z,77.90
2018-04-01T22:42:06.796Z,78.10
2018-04-01T22:46:09.337Z,78.10
2018-04-01T22:50:12.094Z,77.90
2018-04-01T22:54:14.638Z,78.00
2018-04-01T22:58:17.917Z,78.00
2018-04-01T23:02:20.443Z,77.90
2018-04-01T23:06:22.977Z,78.00
2018-04-01T23:10:25.560Z,78.00
2018-04-01T23:14:28.068Z,77.90
2018-04-01T23:18:31.385Z,78.10
2018-04-01T23:22:34.660Z,78.10
2018-04-01T23:26:37.185Z,78.10
2018-04-01T23:30:40.482Z,77.90
2018-04-01T23:34:43.789Z,77.90
2018-04-01T23:38:48.198Z,78.00
2018-04-01T23:42:50.705Z,77.90
2018-04-01T23:46:53.237Z,78.00
2018-04-01T23:50:55.777Z,78.00
2018-04-01T23:54:58.356Z,78.10
2018-04-01T23:59:00.899Z,78.00
